Terminal Aerodrome Forecast
Issued by NWS Salt Lake City, UT

Home | Current Version | Previous Version | Text Only | Print | Product List | Glossary On
Versions: 1 2 3 4 5 6 7 8 9 10 11 12 13
000
FTUS45 KSLC 251724
TAFCDC
TAF
KCDC 251724Z 2518/2618 22022G30KT P6SM FEW090 FEW120
     FM260100 18015KT P6SM SCT090
     FM261600 23008G16KT P6SM SCT070 SCT120=

USA.gov is the U.S. government's official web portal to all federal, state and local government web resources and services.